sensor_id;sensor_type;location;lat;lon;timestamp;pressure;altitude;pressure_sealevel;temperature;humidity
28306;BME280;7516;43.570;1.448;2023-09-30T00:00:35;100443.31;;;21.58;78.87
28306;BME280;7516;43.570;1.448;2023-09-30T00:03:03;100442.72;;;21.56;78.64
28306;BME280;7516;43.570;1.448;2023-09-30T00:05:30;100445.84;;;21.53;78.65
28306;BME280;7516;43.570;1.448;2023-09-30T00:07:58;100446.50;;;21.49;78.63
28306;BME280;7516;43.570;1.448;2023-09-30T00:10:25;100458.91;;;21.43;78.94
28306;BME280;7516;43.570;1.448;2023-09-30T00:12:54;100455.03;;;21.39;79.27
28306;BME280;7516;43.570;1.448;2023-09-30T00:15:21;100458.19;;;21.36;79.38
28306;BME280;7516;43.570;1.448;2023-09-30T00:17:49;100463.13;;;21.32;79.86
28306;BME280;7516;43.570;1.448;2023-09-30T00:20:16;100455.00;;;21.27;80.22
28306;BME280;7516;43.570;1.448;2023-09-30T00:22:44;100465.72;;;21.21;81.04
28306;BME280;7516;43.570;1.448;2023-09-30T00:25:11;100456.75;;;21.15;80.93
28306;BME280;7516;43.570;1.448;2023-09-30T00:27:39;100452.22;;;21.16;81.59
28306;BME280;7516;43.570;1.448;2023-09-30T00:30:09;100461.69;;;21.12;81.62
28306;BME280;7516;43.570;1.448;2023-09-30T00:32:37;100464.00;;;21.08;81.87
28306;BME280;7516;43.570;1.448;2023-09-30T00:35:06;100451.91;;;21.06;82.06
28306;BME280;7516;43.570;1.448;2023-09-30T00:37:37;100456.09;;;21.01;82.74
28306;BME280;7516;43.570;1.448;2023-09-30T00:40:05;100453.25;;;20.96;82.99
28306;BME280;7516;43.570;1.448;2023-09-30T00:42:33;100453.69;;;20.93;83.44
28306;BME280;7516;43.570;1.448;2023-09-30T00:45:00;100450.88;;;20.88;83.53
28306;BME280;7516;43.570;1.448;2023-09-30T00:47:30;100452.94;;;20.86;83.53
28306;BME280;7516;43.570;1.448;2023-09-30T00:49:59;100453.41;;;20.83;83.73
28306;BME280;7516;43.570;1.448;2023-09-30T00:52:27;100448.94;;;20.77;83.67
28306;BME280;7516;43.570;1.448;2023-09-30T00:54:55;100452.06;;;20.74;84.42
28306;BME280;7516;43.570;1.448;2023-09-30T00:57:23;100447.97;;;20.72;84.69
28306;BME280;7516;43.570;1.448;2023-09-30T00:59:51;100445.75;;;20.69;85.21
28306;BME280;7516;43.570;1.448;2023-09-30T01:02:19;100449.09;;;20.64;85.31
28306;BME280;7516;43.570;1.448;2023-09-30T01:04:48;100441.31;;;20.62;85.49
28306;BME280;7516;43.570;1.448;2023-09-30T01:07:16;100444.19;;;20.61;85.79
28306;BME280;7516;43.570;1.448;2023-09-30T01:09:43;100447.31;;;20.58;86.14
28306;BME280;7516;43.570;1.448;2023-09-30T01:12:11;100450.81;;;20.52;85.85
28306;BME280;7516;43.570;1.448;2023-09-30T01:14:38;100449.19;;;20.51;86.42
28306;BME280;7516;43.570;1.448;2023-09-30T01:17:07;100449.66;;;20.48;86.49
28306;BME280;7516;43.570;1.448;2023-09-30T01:19:37;100452.72;;;20.45;86.63
28306;BME280;7516;43.570;1.448;2023-09-30T01:22:06;100443.31;;;20.42;87.10
28306;BME280;7516;43.570;1.448;2023-09-30T01:24:39;100443.78;;;20.39;86.92
28306;BME280;7516;43.570;1.448;2023-09-30T01:27:07;100446.66;;;20.38;87.07
28306;BME280;7516;43.570;1.448;2023-09-30T01:29:35;100449.53;;;20.36;87.48
28306;BME280;7516;43.570;1.448;2023-09-30T01:32:04;100444.59;;;20.33;87.90
28306;BME280;7516;43.570;1.448;2023-09-30T01:34:33;100444.03;;;20.31;87.74
28306;BME280;7516;43.570;1.448;2023-09-30T01:37:02;100447.94;;;20.28;87.84
28306;BME280;7516;43.570;1.448;2023-09-30T01:39:31;100445.69;;;20.25;87.80
28306;BME280;7516;43.570;1.448;2023-09-30T01:41:58;100451.47;;;20.22;88.05
28306;BME280;7516;43.570;1.448;2023-09-30T01:44:26;100450.84;;;20.20;87.94
28306;BME280;7516;43.570;1.448;2023-09-30T01:46:53;100448.00;;;20.15;88.16
28306;BME280;7516;43.570;1.448;2023-09-30T01:49:21;100442.31;;;20.12;88.48
28306;BME280;7516;43.570;1.448;2023-09-30T01:51:50;100449.91;;;20.08;88.46
28306;BME280;7516;43.570;1.448;2023-09-30T01:54:17;100448.50;;;20.06;88.58
28306;BME280;7516;43.570;1.448;2023-09-30T01:56:46;100449.97;;;20.02;88.95
28306;BME280;7516;43.570;1.448;2023-09-30T01:59:13;100451.00;;;20.01;89.57
28306;BME280;7516;43.570;1.448;2023-09-30T02:01:41;100446.50;;;20.01;89.47
28306;BME280;7516;43.570;1.448;2023-09-30T02:04:08;100444.03;;;20.00;89.37
28306;BME280;7516;43.570;1.448;2023-09-30T02:06:36;100448.53;;;19.99;89.42
28306;BME280;7516;43.570;1.448;2023-09-30T02:09:04;100448.81;;;19.91;89.76
28306;BME280;7516;43.570;1.448;2023-09-30T02:11:34;100452.50;;;19.90;89.95
28306;BME280;7516;43.570;1.448;2023-09-30T02:14:04;100449.22;;;19.88;90.31
28306;BME280;7516;43.570;1.448;2023-09-30T02:16:33;100454.53;;;19.88;90.46
28306;BME280;7516;43.570;1.448;2023-09-30T02:19:00;100452.34;;;19.85;90.05
28306;BME280;7516;43.570;1.448;2023-09-30T02:21:28;100455.84;;;19.79;90.25
28306;BME280;7516;43.570;1.448;2023-09-30T02:23:55;100452.59;;;19.77;90.29
28306;BME280;7516;43.570;1.448;2023-09-30T02:26:23;100457.91;;;19.77;90.62
28306;BME280;7516;43.570;1.448;2023-09-30T02:28:53;100444.81;;;19.75;90.46
28306;BME280;7516;43.570;1.448;2023-09-30T02:31:22;100459.56;;;19.71;91.05
28306;BME280;7516;43.570;1.448;2023-09-30T02:33:50;100450.75;;;19.71;91.23
28306;BME280;7516;43.570;1.448;2023-09-30T02:36:17;100459.56;;;19.71;91.30
28306;BME280;7516;43.570;1.448;2023-09-30T02:38:45;100461.84;;;19.68;91.80
28306;BME280;7516;43.570;1.448;2023-09-30T02:41:12;100456.53;;;19.68;91.53
28306;BME280;7516;43.570;1.448;2023-09-30T02:43:40;100452.22;;;19.67;91.50
28306;BME280;7516;43.570;1.448;2023-09-30T02:46:07;100442.00;;;19.64;91.51
28306;BME280;7516;43.570;1.448;2023-09-30T02:48:37;100446.50;;;19.63;91.37
28306;BME280;7516;43.570;1.448;2023-09-30T02:51:08;100442.44;;;19.61;91.58
28306;BME280;7516;43.570;1.448;2023-09-30T02:53:36;100442.88;;;19.58;91.41
28306;BME280;7516;43.570;1.448;2023-09-30T02:56:04;100437.75;;;19.56;91.54
28306;BME280;7516;43.570;1.448;2023-09-30T02:58:31;100438.78;;;19.55;91.71
28306;BME280;7516;43.570;1.448;2023-09-30T03:00:59;100440.81;;;19.53;91.75
28306;BME280;7516;43.570;1.448;2023-09-30T03:03:26;100438.97;;;19.53;91.87
28306;BME280;7516;43.570;1.448;2023-09-30T03:05:55;100437.59;;;19.51;92.01
28306;BME280;7516;43.570;1.448;2023-09-30T03:08:23;100431.88;;;19.47;92.00
28306;BME280;7516;43.570;1.448;2023-09-30T03:10:51;100438.81;;;19.48;91.93
28306;BME280;7516;43.570;1.448;2023-09-30T03:13:19;100440.47;;;19.43;92.04
28306;BME280;7516;43.570;1.448;2023-09-30T03:15:47;100433.91;;;19.39;92.22
28306;BME280;7516;43.570;1.448;2023-09-30T03:18:16;100435.16;;;19.36;92.18
28306;BME280;7516;43.570;1.448;2023-09-30T03:20:48;100428.63;;;19.32;92.14
28306;BME280;7516;43.570;1.448;2023-09-30T03:23:18;100436.00;;;19.30;92.43
28306;BME280;7516;43.570;1.448;2023-09-30T03:25:45;100429.91;;;19.23;92.54
28306;BME280;7516;43.570;1.448;2023-09-30T03:28:13;100433.59;;;19.22;92.83
28306;BME280;7516;43.570;1.448;2023-09-30T03:30:41;100436.66;;;19.19;92.92
28306;BME280;7516;43.570;1.448;2023-09-30T03:33:08;100434.44;;;19.16;93.04
28306;BME280;7516;43.570;1.448;2023-09-30T03:35:34;100443.84;;;19.12;93.39
28306;BME280;7516;43.570;1.448;2023-09-30T03:38:03;100442.81;;;19.13;93.42
28306;BME280;7516;43.570;1.448;2023-09-30T03:40:32;100441.38;;;19.10;93.53
28306;BME280;7516;43.570;1.448;2023-09-30T03:43:00;100435.69;;;19.07;93.68
28306;BME280;7516;43.570;1.448;2023-09-30T03:45:28;100432.41;;;19.05;93.94
28306;BME280;7516;43.570;1.448;2023-09-30T03:47:55;100440.78;;;19.02;94.05
28306;BME280;7516;43.570;1.448;2023-09-30T03:50:23;100440.19;;;19.00;94.01
28306;BME280;7516;43.570;1.448;2023-09-30T03:52:51;100437.16;;;18.96;94.11
28306;BME280;7516;43.570;1.448;2023-09-30T03:55:18;100434.91;;;18.93;94.20
28306;BME280;7516;43.570;1.448;2023-09-30T03:57:48;100428.19;;;18.91;94.28
28306;BME280;7516;43.570;1.448;2023-09-30T04:00:17;100432.88;;;18.89;94.14
28306;BME280;7516;43.570;1.448;2023-09-30T04:02:45;100440.22;;;18.87;94.69
28306;BME280;7516;43.570;1.448;2023-09-30T04:05:16;100437.38;;;18.88;94.46
28306;BME280;7516;43.570;1.448;2023-09-30T04:07:44;100433.28;;;18.86;94.75
28306;BME280;7516;43.570;1.448;2023-09-30T04:10:12;100431.03;;;18.83;94.62
28306;BME280;7516;43.570;1.448;2023-09-30T04:12:40;100431.84;;;18.83;94.93
28306;BME280;7516;43.570;1.448;2023-09-30T04:15:10;100431.47;;;18.79;95.27
28306;BME280;7516;43.570;1.448;2023-09-30T04:17:38;100430.84;;;18.77;95.44
28306;BME280;7516;43.570;1.448;2023-09-30T04:20:07;100431.88;;;18.76;95.13
28306;BME280;7516;43.570;1.448;2023-09-30T04:22:37;100428.59;;;18.74;95.33
28306;BME280;7516;43.570;1.448;2023-09-30T04:25:06;100428.84;;;18.73;95.17
28306;BME280;7516;43.570;1.448;2023-09-30T04:27:35;100435.16;;;18.72;95.33
28306;BME280;7516;43.570;1.448;2023-09-30T04:30:03;100428.41;;;18.69;95.67
28306;BME280;7516;43.570;1.448;2023-09-30T04:32:36;100435.38;;;18.70;95.87
28306;BME280;7516;43.570;1.448;2023-09-30T04:35:05;100428.63;;;18.68;95.84
28306;BME280;7516;43.570;1.448;2023-09-30T04:37:34;100425.34;;;18.66;95.94
28306;BME280;7516;43.570;1.448;2023-09-30T04:40:04;100426.16;;;18.66;96.27
28306;BME280;7516;43.570;1.448;2023-09-30T04:42:35;100431.47;;;18.66;96.42
28306;BME280;7516;43.570;1.448;2023-09-30T04:45:03;100417.63;;;18.64;96.63
28306;BME280;7516;43.570;1.448;2023-09-30T04:47:35;100415.97;;;18.63;97.02
28306;BME280;7516;43.570;1.448;2023-09-30T04:50:05;100422.69;;;18.66;97.00
28306;BME280;7516;43.570;1.448;2023-09-30T04:52:33;100421.28;;;18.63;97.37
28306;BME280;7516;43.570;1.448;2023-09-30T04:55:01;100419.66;;;18.62;97.51
28306;BME280;7516;43.570;1.448;2023-09-30T04:57:29;100421.91;;;18.59;97.71
28306;BME280;7516;43.570;1.448;2023-09-30T04:59:57;100426.38;;;18.58;97.71
28306;BME280;7516;43.570;1.448;2023-09-30T05:02:25;100437.22;;;18.57;97.97
28306;BME280;7516;43.570;1.448;2023-09-30T05:04:54;100433.69;;;18.56;97.74
28306;BME280;7516;43.570;1.448;2023-09-30T05:07:22;100437.81;;;18.52;97.91
28306;BME280;7516;43.570;1.448;2023-09-30T05:09:49;100432.91;;;18.49;98.14
28306;BME280;7516;43.570;1.448;2023-09-30T05:12:17;100435.75;;;18.48;98.27
28306;BME280;7516;43.570;1.448;2023-09-30T05:14:44;100438.41;;;18.48;98.47
28306;BME280;7516;43.570;1.448;2023-09-30T05:17:12;100438.63;;;18.46;98.73
28306;BME280;7516;43.570;1.448;2023-09-30T05:19:39;100452.94;;;18.45;99.19
28306;BME280;7516;43.570;1.448;2023-09-30T05:22:08;100445.38;;;18.42;99.04
28306;BME280;7516;43.570;1.448;2023-09-30T05:24:36;100455.38;;;18.40;99.10
28306;BME280;7516;43.570;1.448;2023-09-30T05:27:03;100462.72;;;18.38;99.53
28306;BME280;7516;43.570;1.448;2023-09-30T05:29:31;100458.66;;;18.35;99.67
28306;BME280;7516;43.570;1.448;2023-09-30T05:31:59;100465.16;;;18.33;99.68
28306;BME280;7516;43.570;1.448;2023-09-30T05:34:28;100461.91;;;18.31;99.83
28306;BME280;7516;43.570;1.448;2023-09-30T05:36:56;100467.63;;;18.28;99.78
28306;BME280;7516;43.570;1.448;2023-09-30T05:39:25;100464.34;;;18.26;99.98
28306;BME280;7516;43.570;1.448;2023-09-30T05:41:54;100462.72;;;18.25;99.66
28306;BME280;7516;43.570;1.448;2023-09-30T05:44:22;100468.22;;;18.23;100.00
28306;BME280;7516;43.570;1.448;2023-09-30T05:46:52;100463.09;;;18.22;100.00
28306;BME280;7516;43.570;1.448;2023-09-30T05:49:19;100465.56;;;18.23;100.00
28306;BME280;7516;43.570;1.448;2023-09-30T05:51:47;100463.94;;;18.22;100.00
28306;BME280;7516;43.570;1.448;2023-09-30T05:54:14;100464.13;;;18.21;100.00
28306;BME280;7516;43.570;1.448;2023-09-30T05:56:43;100464.56;;;18.18;100.00
28306;BME280;7516;43.570;1.448;2023-09-30T05:59:11;100469.25;;;18.16;100.00
28306;BME280;7516;43.570;1.448;2023-09-30T06:01:39;100473.72;;;18.15;100.00
28306;BME280;7516;43.570;1.448;2023-09-30T06:04:08;100469.25;;;18.16;100.00
28306;BME280;7516;43.570;1.448;2023-09-30T06:06:36;100468.41;;;18.15;100.00
28306;BME280;7516;43.570;1.448;2023-09-30T06:09:04;100473.72;;;18.15;100.00
28306;BME280;7516;43.570;1.448;2023-09-30T06:11:34;100480.66;;;18.16;100.00
28306;BME280;7516;43.570;1.448;2023-09-30T06:14:03;100480.47;;;18.18;100.00
28306;BME280;7516;43.570;1.448;2023-09-30T06:16:32;100476.81;;;18.19;100.00
28306;BME280;7516;43.570;1.448;2023-09-30T06:19:00;100481.50;;;18.17;100.00
28306;BME280;7516;43.570;1.448;2023-09-30T06:21:30;100487.41;;;18.19;100.00
28306;BME280;7516;43.570;1.448;2023-09-30T06:24:00;100479.47;;;18.19;100.00
28306;BME280;7516;43.570;1.448;2023-09-30T06:26:28;100488.25;;;18.19;100.00
28306;BME280;7516;43.570;1.448;2023-09-30T06:28:56;100488.81;;;18.21;100.00
28306;BME280;7516;43.570;1.448;2023-09-30T06:31:25;100494.13;;;18.21;100.00
28306;BME280;7516;43.570;1.448;2023-09-30T06:33:54;100493.31;;;18.21;100.00
28306;BME280;7516;43.570;1.448;2023-09-30T06:36:24;100498.22;;;18.24;100.00
28306;BME280;7516;43.570;1.448;2023-09-30T06:38:52;100499.47;;;18.28;100.00
28306;BME280;7516;43.570;1.448;2023-09-30T06:41:19;100498.47;;;18.29;100.00
28306;BME280;7516;43.570;1.448;2023-09-30T06:43:47;100497.41;;;18.30;100.00
28306;BME280;7516;43.570;1.448;2023-09-30T06:46:15;100496.41;;;18.31;100.00
28306;BME280;7516;43.570;1.448;2023-09-30T06:48:44;100494.38;;;18.33;100.00
28306;BME280;7516;43.570;1.448;2023-09-30T06:51:14;100492.31;;;18.35;100.00
28306;BME280;7516;43.570;1.448;2023-09-30T06:53:43;100505.19;;;18.38;100.00
28306;BME280;7516;43.570;1.448;2023-09-30T06:56:11;100504.97;;;18.39;100.00
28306;BME280;7516;43.570;1.448;2023-09-30T06:58:40;100506.41;;;18.42;100.00
28306;BME280;7516;43.570;1.448;2023-09-30T07:01:07;100509.69;;;18.44;100.00
28306;BME280;7516;43.570;1.448;2023-09-30T07:03:35;100515.63;;;18.46;99.93
28306;BME280;7516;43.570;1.448;2023-09-30T07:06:04;100521.94;;;18.52;100.00
28306;BME280;7516;43.570;1.448;2023-09-30T07:08:31;100521.31;;;18.56;99.97
28306;BME280;7516;43.570;1.448;2023-09-30T07:10:59;100514.00;;;18.58;99.51
28306;BME280;7516;43.570;1.448;2023-09-30T07:13:26;100519.94;;;18.60;99.71
28306;BME280;7516;43.570;1.448;2023-09-30T07:15:54;100516.66;;;18.65;99.73
28306;BME280;7516;43.570;1.448;2023-09-30T07:18:21;100509.94;;;18.69;99.74
28306;BME280;7516;43.570;1.448;2023-09-30T07:20:50;100519.72;;;18.75;99.60
28306;BME280;7516;43.570;1.448;2023-09-30T07:23:19;100513.19;;;18.77;99.29
28306;BME280;7516;43.570;1.448;2023-09-30T07:25:47;100514.44;;;18.82;99.29
28306;BME280;7516;43.570;1.448;2023-09-30T07:28:14;100522.78;;;18.85;99.06
28306;BME280;7516;43.570;1.448;2023-09-30T07:30:43;100531.38;;;18.87;98.91
28306;BME280;7516;43.570;1.448;2023-09-30T07:33:10;100532.38;;;18.93;99.10
28306;BME280;7516;43.570;1.448;2023-09-30T07:35:38;100538.09;;;18.96;98.91
28306;BME280;7516;43.570;1.448;2023-09-30T07:38:06;100534.81;;;19.01;98.80
28306;BME280;7516;43.570;1.448;2023-09-30T07:40:34;100540.34;;;19.06;98.48
28306;BME280;7516;43.570;1.448;2023-09-30T07:43:02;100544.81;;;19.12;98.34
28306;BME280;7516;43.570;1.448;2023-09-30T07:45:30;100551.38;;;19.16;98.68
28306;BME280;7516;43.570;1.448;2023-09-30T07:47:57;100552.97;;;19.24;98.32
28306;BME280;7516;43.570;1.448;2023-09-30T07:50:25;100545.41;;;19.27;98.14
28306;BME280;7516;43.570;1.448;2023-09-30T07:52:52;100550.09;;;19.32;97.86
28306;BME280;7516;43.570;1.448;2023-09-30T07:55:20;100557.22;;;19.38;97.92
28306;BME280;7516;43.570;1.448;2023-09-30T07:57:49;100558.03;;;19.45;97.70
28306;BME280;7516;43.570;1.448;2023-09-30T08:00:17;100564.41;;;19.50;97.57
28306;BME280;7516;43.570;1.448;2023-09-30T08:02:47;100566.22;;;19.57;97.34
28306;BME280;7516;43.570;1.448;2023-09-30T08:05:15;100576.25;;;19.61;97.26
28306;BME280;7516;43.570;1.448;2023-09-30T08:07:43;100570.50;;;19.64;96.92
28306;BME280;7516;43.570;1.448;2023-09-30T08:10:12;100573.13;;;19.71;96.63
28306;BME280;7516;43.570;1.448;2023-09-30T08:12:42;100570.66;;;19.76;96.58
28306;BME280;7516;43.570;1.448;2023-09-30T08:15:13;100571.44;;;19.83;96.42
28306;BME280;7516;43.570;1.448;2023-09-30T08:17:41;100568.38;;;19.86;96.07
28306;BME280;7516;43.570;1.448;2023-09-30T08:20:09;100564.25;;;19.90;95.96
28306;BME280;7516;43.570;1.448;2023-09-30T08:22:37;100570.34;;;19.97;95.59
28306;BME280;7516;43.570;1.448;2023-09-30T08:25:06;100567.88;;;20.02;95.16
28306;BME280;7516;43.570;1.448;2023-09-30T08:27:34;100572.78;;;20.05;95.21
28306;BME280;7516;43.570;1.448;2023-09-30T08:30:01;100568.25;;;20.12;95.03
28306;BME280;7516;43.570;1.448;2023-09-30T08:32:34;100566.56;;;20.18;94.83
28306;BME280;7516;43.570;1.448;2023-09-30T08:35:02;100567.34;;;20.25;94.70
28306;BME280;7516;43.570;1.448;2023-09-30T08:37:30;100568.09;;;20.32;94.31
28306;BME280;7516;43.570;1.448;2023-09-30T08:39:58;100565.66;;;20.37;94.12
28306;BME280;7516;43.570;1.448;2023-09-30T08:42:27;100564.19;;;20.41;93.37
28306;BME280;7516;43.570;1.448;2023-09-30T08:44:59;100561.09;;;20.44;93.54
28306;BME280;7516;43.570;1.448;2023-09-30T08:47:27;100571.69;;;20.51;93.36
28306;BME280;7516;43.570;1.448;2023-09-30T08:49:58;100566.94;;;20.59;92.78
28306;BME280;7516;43.570;1.448;2023-09-30T08:52:32;100572.44;;;20.64;92.49
28306;BME280;7516;43.570;1.448;2023-09-30T08:55:00;100571.56;;;20.71;92.24
28306;BME280;7516;43.570;1.448;2023-09-30T08:57:28;100569.44;;;20.79;91.59
28306;BME280;7516;43.570;1.448;2023-09-30T08:59:57;100564.66;;;20.88;91.09
28306;BME280;7516;43.570;1.448;2023-09-30T09:02:25;100565.41;;;20.95;90.91
28306;BME280;7516;43.570;1.448;2023-09-30T09:04:52;100560.69;;;20.97;90.34
28306;BME280;7516;43.570;1.448;2023-09-30T09:07:21;100564.97;;;20.98;90.52
28306;BME280;7516;43.570;1.448;2023-09-30T09:10:04;100565.94;;;21.03;90.37
28306;BME280;7516;43.570;1.448;2023-09-30T09:12:33;100576.13;;;21.13;89.74
28306;BME280;7516;43.570;1.448;2023-09-30T09:15:01;100571.34;;;21.22;88.54
28306;BME280;7516;43.570;1.448;2023-09-30T09:17:40;100573.91;;;21.35;87.65
28306;BME280;7516;43.570;1.448;2023-09-30T09:20:10;100570.19;;;21.36;87.60
28306;BME280;7516;43.570;1.448;2023-09-30T09:22:41;100575.28;;;21.37;87.69
28306;BME280;7516;43.570;1.448;2023-09-30T09:25:09;100578.34;;;21.41;87.69
28306;BME280;7516;43.570;1.448;2023-09-30T09:27:37;100572.88;;;21.54;86.99
28306;BME280;7516;43.570;1.448;2023-09-30T09:30:15;100573.44;;;21.56;86.50
28306;BME280;7516;43.570;1.448;2023-09-30T09:32:53;100575.38;;;21.67;86.32
28306;BME280;7516;43.570;1.448;2023-09-30T09:35:21;100564.81;;;21.72;85.97
28306;BME280;7516;43.570;1.448;2023-09-30T09:37:59;100554.09;;;21.79;85.53
28306;BME280;7516;43.570;1.448;2023-09-30T09:40:28;100561.41;;;21.84;85.34
28306;BME280;7516;43.570;1.448;2023-09-30T09:42:57;100552.16;;;21.86;84.99
28306;BME280;7516;43.570;1.448;2023-09-30T09:45:26;100556.81;;;21.91;84.85
28306;BME280;7516;43.570;1.448;2023-09-30T09:47:54;100553.06;;;21.98;84.59
28306;BME280;7516;43.570;1.448;2023-09-30T09:50:23;100553.19;;;22.03;84.39
28306;BME280;7516;43.570;1.448;2023-09-30T09:52:51;100552.28;;;22.09;83.86
28306;BME280;7516;43.570;1.448;2023-09-30T09:55:23;100547.56;;;22.23;80.97
28306;BME280;7516;43.570;1.448;2023-09-30T09:57:51;100541.53;;;22.28;82.26
28306;BME280;7516;43.570;1.448;2023-09-30T10:00:20;100548.06;;;22.32;81.95
28306;BME280;7516;43.570;1.448;2023-09-30T10:02:49;100544.94;;;22.46;80.45
28306;BME280;7516;43.570;1.448;2023-09-30T10:05:17;100544.03;;;22.52;78.90
28306;BME280;7516;43.570;1.448;2023-09-30T10:07:50;100543.25;;;22.64;77.83
28306;BME280;7516;43.570;1.448;2023-09-30T10:10:21;100543.69;;;22.61;77.76
28306;BME280;7516;43.570;1.448;2023-09-30T10:12:49;100532.09;;;22.67;77.52
28306;BME280;7516;43.570;1.448;2023-09-30T10:15:35;100533.03;;;22.72;76.97
28306;BME280;7516;43.570;1.448;2023-09-30T10:18:04;100533.66;;;22.86;75.56
28306;BME280;7516;43.570;1.448;2023-09-30T10:20:34;100527.47;;;22.97;74.67
28306;BME280;7516;43.570;1.448;2023-09-30T10:23:20;100520.41;;;22.91;74.99
28306;BME280;7516;43.570;1.448;2023-09-30T10:25:51;100527.84;;;23.01;74.45
28306;BME280;7516;43.570;1.448;2023-09-30T10:28:37;100518.88;;;23.07;73.82
28306;BME280;7516;43.570;1.448;2023-09-30T10:31:12;100525.72;;;23.14;73.54
28306;BME280;7516;43.570;1.448;2023-09-30T10:34:20;100523.50;;;23.23;73.53
28306;BME280;7516;43.570;1.448;2023-09-30T10:36:48;100519.09;;;23.29;72.93
28306;BME280;7516;43.570;1.448;2023-09-30T10:42:48;100515.78;;;23.50;71.92
28306;BME280;7516;43.570;1.448;2023-09-30T10:45:45;100523.06;;;23.66;70.23
28306;BME280;7516;43.570;1.448;2023-09-30T10:48:32;100519.09;;;23.80;67.02
28306;BME280;7516;43.570;1.448;2023-09-30T10:51:09;100516.56;;;23.74;67.81
28306;BME280;7516;43.570;1.448;2023-09-30T10:53:45;100512.13;;;23.68;69.21
28306;BME280;7516;43.570;1.448;2023-09-30T10:56:12;100506.69;;;23.62;69.59
28306;BME280;7516;43.570;1.448;2023-09-30T10:58:43;100504.91;;;23.68;69.02
28306;BME280;7516;43.570;1.448;2023-09-30T11:01:12;100505.34;;;23.77;68.26
28306;BME280;7516;43.570;1.448;2023-09-30T11:03:41;100503.88;;;23.97;66.52
28306;BME280;7516;43.570;1.448;2023-09-30T11:06:12;100499.41;;;24.03;66.50
28306;BME280;7516;43.570;1.448;2023-09-30T11:08:47;100505.00;;;24.01;66.27
28306;BME280;7516;43.570;1.448;2023-09-30T11:11:17;100505.94;;;24.07;65.89
28306;BME280;7516;43.570;1.448;2023-09-30T11:13:46;100500.72;;;24.00;65.79
28306;BME280;7516;43.570;1.448;2023-09-30T11:16:14;100505.59;;;24.04;65.93
28306;BME280;7516;43.570;1.448;2023-09-30T11:18:41;100498.59;;;24.02;65.54
28306;BME280;7516;43.570;1.448;2023-09-30T11:21:10;100498.38;;;24.04;66.17
28306;BME280;7516;43.570;1.448;2023-09-30T11:23:40;100496.25;;;24.06;65.97
28306;BME280;7516;43.570;1.448;2023-09-30T11:26:08;100491.03;;;24.28;64.50
28306;BME280;7516;43.570;1.448;2023-09-30T11:28:40;100488.34;;;24.28;64.91
28306;BME280;7516;43.570;1.448;2023-09-30T11:31:10;100493.56;;;24.34;64.42
28306;BME280;7516;43.570;1.448;2023-09-30T11:33:53;100486.88;;;24.37;64.06
28306;BME280;7516;43.570;1.448;2023-09-30T11:36:23;100483.16;;;24.38;64.59
28306;BME280;7516;43.570;1.448;2023-09-30T11:38:52;100487.06;;;24.47;63.76
28306;BME280;7516;43.570;1.448;2023-09-30T11:41:20;100471.94;;;24.58;63.31
28306;BME280;7516;43.570;1.448;2023-09-30T11:44:02;100479.16;;;24.74;61.41
28306;BME280;7516;43.570;1.448;2023-09-30T11:46:48;100475.75;;;24.79;61.10
28306;BME280;7516;43.570;1.448;2023-09-30T11:49:26;100472.06;;;24.85;61.05
28306;BME280;7516;43.570;1.448;2023-09-30T11:51:54;100475.81;;;24.84;60.19
28306;BME280;7516;43.570;1.448;2023-09-30T11:54:21;100468.34;;;24.86;59.73
28306;BME280;7516;43.570;1.448;2023-09-30T11:56:49;100476.88;;;24.83;59.47
28306;BME280;7516;43.570;1.448;2023-09-30T11:59:18;100465.09;;;24.84;60.16
28306;BME280;7516;43.570;1.448;2023-09-30T12:01:49;100460.03;;;24.87;60.34
28306;BME280;7516;43.570;1.448;2023-09-30T12:04:17;100460.94;;;24.93;60.11
28306;BME280;7516;43.570;1.448;2023-09-30T12:06:45;100458.66;;;25.01;58.19
28306;BME280;7516;43.570;1.448;2023-09-30T12:09:14;100454.97;;;25.07;59.34
28306;BME280;7516;43.570;1.448;2023-09-30T12:11:43;100448.50;;;25.03;59.75
28306;BME280;7516;43.570;1.448;2023-09-30T12:14:11;100455.78;;;25.08;59.54
28306;BME280;7516;43.570;1.448;2023-09-30T12:16:40;100445.69;;;25.15;58.63
28306;BME280;7516;43.570;1.448;2023-09-30T12:19:09;100445.31;;;25.28;57.84
28306;BME280;7516;43.570;1.448;2023-09-30T12:21:36;100445.91;;;25.35;57.41
28306;BME280;7516;43.570;1.448;2023-09-30T12:24:04;100437.50;;;25.27;57.55
28306;BME280;7516;43.570;1.448;2023-09-30T12:26:33;100431.84;;;25.23;58.17
28306;BME280;7516;43.570;1.448;2023-09-30T12:29:01;100428.88;;;25.25;58.01
28306;BME280;7516;43.570;1.448;2023-09-30T12:31:29;100428.38;;;25.28;57.68
28306;BME280;7516;43.570;1.448;2023-09-30T12:33:56;100425.00;;;25.37;55.85
28306;BME280;7516;43.570;1.448;2023-09-30T12:36:27;100423.59;;;25.57;56.15
28306;BME280;7516;43.570;1.448;2023-09-30T12:38:54;100419.13;;;25.62;56.36
28306;BME280;7516;43.570;1.448;2023-09-30T12:41:22;100426.94;;;25.64;55.59
28306;BME280;7516;43.570;1.448;2023-09-30T12:43:50;100416.63;;;25.56;56.09
28306;BME280;7516;43.570;1.448;2023-09-30T12:46:17;100414.09;;;25.71;54.24
28306;BME280;7516;43.570;1.448;2023-09-30T12:48:45;100421.16;;;25.77;53.82
28306;BME280;7516;43.570;1.448;2023-09-30T12:51:13;100413.53;;;25.69;54.74
28306;BME280;7516;43.570;1.448;2023-09-30T12:53:42;100414.88;;;25.66;55.40
28306;BME280;7516;43.570;1.448;2023-09-30T12:56:11;100415.38;;;25.63;55.71
28306;BME280;7516;43.570;1.448;2023-09-30T12:58:38;100411.41;;;25.71;55.30
28306;BME280;7516;43.570;1.448;2023-09-30T13:01:06;100412.81;;;25.78;55.18
28306;BME280;7516;43.570;1.448;2023-09-30T13:03:33;100415.84;;;25.87;54.30
28306;BME280;7516;43.570;1.448;2023-09-30T13:06:01;100404.63;;;25.95;53.97
28306;BME280;7516;43.570;1.448;2023-09-30T13:08:29;100403.56;;;25.96;53.75
28306;BME280;7516;43.570;1.448;2023-09-30T13:11:01;100395.59;;;26.06;52.74
28306;BME280;7516;43.570;1.448;2023-09-30T13:13:29;100400.47;;;26.09;53.62